createdAt,value
2018-08-12T09:44:43.181Z,784
2018-08-12T09:45:44.574Z,812
2018-08-12T09:47:06.056Z,784
2018-08-12T09:48:07.445Z,784
2018-08-12T09:49:28.925Z,748
2018-08-12T09:50:30.317Z,784
2018-08-12T09:51:51.860Z,788
2018-08-12T09:52:53.159Z,796
2018-08-12T09:54:14.642Z,788
2018-08-12T09:55:16.030Z,780
2018-08-12T09:56:37.510Z,776
2018-08-12T09:57:38.904Z,768
2018-08-12T09:59:00.390Z,788
2018-08-12T10:00:01.781Z,784
2018-08-12T10:01:23.246Z,792
2018-08-12T10:02:24.638Z,784
2018-08-12T10:03:46.118Z,780
2018-08-12T10:04:47.513Z,792
2018-08-12T10:06:08.998Z,804
2018-08-12T10:07:10.390Z,800
2018-08-12T10:08:31.862Z,840
2018-08-12T10:09:33.254Z,840
2018-08-12T10:10:54.736Z,844
2018-08-12T10:11:56.127Z,844
2018-08-12T10:13:17.615Z,852
2018-08-12T10:14:18.999Z,856
2018-08-12T10:15:40.498Z,856
2018-08-12T10:16:41.862Z,844
2018-08-12T10:18:03.334Z,852
2018-08-12T10:19:04.726Z,844
2018-08-12T10:20:26.214Z,828
2018-08-12T10:21:27.612Z,800
2018-08-12T10:22:49.078Z,760
2018-08-12T10:23:50.470Z,744
2018-08-12T10:25:11.943Z,748
2018-08-12T10:26:13.335Z,748
2018-08-12T10:27:34.831Z,740
2018-08-12T10:28:36.223Z,740
2018-08-12T10:29:57.703Z,736
2018-08-12T10:30:59.095Z,764
2018-08-12T10:32:20.567Z,752
2018-08-12T10:33:21.959Z,764
2018-08-12T10:34:43.447Z,760
2018-08-12T10:35:44.831Z,768
2018-08-12T10:37:06.311Z,772
2018-08-12T10:38:07.703Z,788
2018-08-12T10:39:29.183Z,780
2018-08-12T10:40:30.575Z,792
2018-08-12T10:41:52.207Z,788
2018-08-12T10:42:53.599Z,772
2018-08-12T10:44:15.093Z,784
2018-08-12T10:45:16.471Z,784
2018-08-12T10:46:37.951Z,756
2018-08-12T10:47:39.343Z,740
2018-08-12T10:49:00.832Z,728
2018-08-12T10:50:02.217Z,700
2018-08-12T10:51:23.696Z,672
2018-08-12T10:52:25.088Z,664
2018-08-12T10:53:46.568Z,628
2018-08-12T10:54:47.960Z,616
2018-08-12T10:56:09.455Z,624
2018-08-12T10:57:10.912Z,636
2018-08-12T10:58:32.384Z,604
2018-08-12T10:59:33.777Z,544
2018-08-12T11:00:55.248Z,588
2018-08-12T11:01:56.640Z,528
2018-08-12T11:03:18.280Z,612
2018-08-12T11:04:19.671Z,648
2018-08-12T11:05:41.159Z,648
2018-08-12T11:06:42.544Z,656
2018-08-12T11:08:04.024Z,648
2018-08-12T11:09:05.418Z,644
2018-08-12T11:10:26.912Z,644
2018-08-12T11:11:28.305Z,604
2018-08-12T11:12:49.840Z,552
2018-08-12T11:13:51.176Z,620
2018-08-12T11:15:12.657Z,624
2018-08-12T11:16:14.048Z,620
2018-08-12T11:17:35.680Z,664
2018-08-12T11:18:37.072Z,648
2018-08-12T11:19:58.552Z,680
2018-08-12T11:20:59.945Z,684
2018-08-12T11:22:21.416Z,648
2018-08-12T11:23:22.808Z,676
2018-08-12T11:24:44.296Z,696
2018-08-12T11:25:45.680Z,712
2018-08-12T11:27:07.161Z,716
2018-08-12T11:28:08.552Z,704
2018-08-12T11:29:30.033Z,696
2018-08-12T11:30:31.425Z,708
2018-08-12T11:31:52.913Z,696
2018-08-12T11:32:54.304Z,676
2018-08-12T11:34:15.784Z,680
2018-08-12T11:35:17.177Z,680
2018-08-12T11:36:38.657Z,704
2018-08-12T11:37:40.049Z,708
2018-08-12T11:39:01.545Z,712
2018-08-12T11:40:02.938Z,716
2018-08-12T11:41:24.417Z,716
2018-08-12T11:42:25.809Z,724
2018-08-12T11:43:47.289Z,724
2018-08-12T11:44:48.693Z,716
2018-08-12T11:46:10.169Z,720
2018-08-12T11:47:11.553Z,700
2018-08-12T11:48:33.025Z,756
2018-08-12T11:49:34.419Z,748
2018-08-12T11:50:55.899Z,764
2018-08-12T11:51:57.289Z,760
2018-08-12T11:53:18.785Z,760
2018-08-12T11:54:20.179Z,764
2018-08-12T11:55:41.657Z,732
2018-08-12T11:56:43.049Z,716
2018-08-12T11:58:04.529Z,604
2018-08-12T11:59:05.921Z,660
2018-08-12T12:00:27.409Z,664
2018-08-12T12:01:28.793Z,688
2018-08-12T12:02:50.280Z,656
2018-08-12T12:03:51.666Z,672
2018-08-12T12:05:13.137Z,688
2018-08-12T12:06:14.529Z,668
2018-08-12T12:07:36.026Z,708
2018-08-12T12:08:37.417Z,740
2018-08-12T12:09:58.897Z,652
2018-08-12T12:11:00.289Z,724
2018-08-12T12:12:21.770Z,740
2018-08-12T12:13:23.161Z,776
2018-08-12T12:14:44.660Z,784
2018-08-12T12:15:46.050Z,804
2018-08-12T12:17:07.531Z,808
2018-08-12T12:18:08.921Z,796
2018-08-12T12:19:30.393Z,828
2018-08-12T12:20:31.806Z,836
2018-08-12T12:21:53.281Z,836
2018-08-12T12:22:54.673Z,844
2018-08-12T12:24:16.154Z,844
2018-08-12T12:25:17.546Z,852
2018-08-12T12:26:39.026Z,868
2018-08-12T12:27:40.418Z,852
2018-08-12T12:29:01.922Z,848
2018-08-12T12:30:03.314Z,844
2018-08-12T12:31:24.795Z,864
2018-08-12T12:32:26.186Z,868
2018-08-12T12:33:47.666Z,856
2018-08-12T12:34:49.058Z,844
2018-08-12T12:36:10.556Z,848
2018-08-12T12:37:11.948Z,824
2018-08-12T12:38:33.426Z,832
2018-08-12T12:39:34.818Z,800
2018-08-12T12:40:56.298Z,804
2018-08-12T12:41:57.690Z,784
2018-08-12T12:43:19.178Z,784
2018-08-12T12:44:20.562Z,792
2018-08-12T12:45:42.043Z,780
2018-08-12T12:46:43.435Z,756
2018-08-12T12:48:04.915Z,760
2018-08-12T12:49:06.307Z,780
2018-08-12T12:50:27.834Z,788
2018-08-12T12:51:29.179Z,792
2018-08-12T12:52:50.662Z,772
2018-08-12T12:53:52.155Z,772
2018-08-12T12:55:13.643Z,764
2018-08-12T12:56:15.086Z,744
2018-08-12T12:57:36.523Z,712
2018-08-12T12:58:37.915Z,728
2018-08-12T12:59:59.395Z,724
2018-08-12T13:01:00.788Z,720
2018-08-12T13:02:22.269Z,748
2018-08-12T13:03:23.660Z,744
2018-08-12T13:04:45.148Z,764
2018-08-12T13:05:46.531Z,760
2018-08-12T13:07:08.011Z,744
2018-08-12T13:08:09.404Z,764
2018-08-12T13:09:30.876Z,760
2018-08-12T13:10:32.267Z,724
2018-08-12T13:11:53.755Z,748
2018-08-12T13:12:55.140Z,740
2018-08-12T13:14:16.619Z,724
2018-08-12T13:15:18.012Z,712
2018-08-12T13:16:39.491Z,692
2018-08-12T13:17:40.886Z,684
2018-08-12T13:19:02.380Z,672
2018-08-12T13:20:03.772Z,668
2018-08-12T13:21:25.252Z,672
2018-08-12T13:22:26.644Z,672
2018-08-12T13:23:48.124Z,668
2018-08-12T13:24:49.516Z,652
2018-08-12T13:26:11.012Z,676
2018-08-12T13:27:12.412Z,668
2018-08-12T13:28:33.892Z,672
2018-08-12T13:29:35.284Z,668
2018-08-12T13:30:56.764Z,668
2018-08-12T13:31:58.157Z,668
2018-08-12T13:33:19.652Z,676
2018-08-12T13:34:21.036Z,680
2018-08-12T13:35:42.516Z,668
2018-08-12T13:36:43.909Z,656
2018-08-12T13:38:05.388Z,640
2018-08-12T13:39:06.781Z,644
2018-08-12T13:40:28.421Z,644
2018-08-12T13:41:29.812Z,644
2018-08-12T13:42:51.292Z,644
2018-08-12T13:43:52.686Z,636
2018-08-12T13:45:14.168Z,648
2018-08-12T13:46:15.556Z,648
2018-08-12T13:47:37.213Z,644
2018-08-12T13:48:38.604Z,644
2018-08-12T13:50:00.085Z,640
2018-08-12T13:51:01.492Z,636
2018-08-12T13:52:22.957Z,620
2018-08-12T13:53:24.349Z,632
2018-08-12T13:54:45.845Z,632
2018-08-12T13:55:47.236Z,624
2018-08-12T13:57:08.716Z,612
2018-08-12T13:58:10.109Z,604
2018-08-12T13:59:31.581Z,620
2018-08-12T14:00:32.973Z,616
2018-08-12T14:01:54.469Z,620
2018-08-12T14:02:55.861Z,620
2018-08-12T14:04:17.341Z,620
2018-08-12T14:05:18.733Z,632
2018-08-12T14:06:40.213Z,640
2018-08-12T14:07:41.605Z,640
2018-08-12T14:09:03.093Z,656
2018-08-12T14:10:04.485Z,660
2018-08-12T14:11:25.959Z,664
2018-08-12T14:12:27.349Z,708
2018-08-12T14:13:48.858Z,712
2018-08-12T14:14:50.221Z,728
2018-08-12T14:16:11.710Z,748
2018-08-12T14:17:13.093Z,764
2018-08-12T14:18:34.576Z,780
2018-08-12T14:19:35.966Z,820
2018-08-12T14:20:57.491Z,836
2018-08-12T14:21:58.841Z,828
2018-08-12T14:23:20.477Z,852
2018-08-12T14:24:21.869Z,872
2018-08-12T14:25:43.349Z,868
2018-08-12T14:26:44.742Z,860
2018-08-12T14:28:06.221Z,864
2018-08-12T14:29:07.614Z,864
2018-08-12T14:30:29.102Z,924
2018-08-12T14:31:30.494Z,952
2018-08-12T14:32:51.967Z,912
2018-08-12T14:33:53.362Z,876
2018-08-12T14:35:14.838Z,832
2018-08-12T14:36:16.229Z,772
2018-08-12T14:37:37.784Z,840
2018-08-12T14:38:39.078Z,796
2018-08-12T14:40:00.558Z,788
2018-08-12T14:41:01.953Z,732
2018-08-12T14:42:23.438Z,724
2018-08-12T14:43:24.833Z,720
2018-08-12T14:44:46.358Z,720
2018-08-12T14:45:47.670Z,728
2018-08-12T14:47:09.150Z,720
2018-08-12T14:48:10.542Z,708
2018-08-12T14:49:32.023Z,740
2018-08-12T14:50:33.414Z,756
2018-08-12T14:51:54.910Z,780
2018-08-12T14:52:56.303Z,772
2018-08-12T14:54:17.782Z,756
2018-08-12T14:55:19.185Z,756
2018-08-12T14:56:40.656Z,736
2018-08-12T14:57:42.071Z,708
2018-08-12T14:59:03.543Z,708
2018-08-12T15:00:04.935Z,708
2018-08-12T15:01:26.415Z,724
2018-08-12T15:02:27.806Z,732
2018-08-12T15:03:49.287Z,748
2018-08-12T15:04:50.670Z,744
2018-08-12T15:06:12.318Z,712
2018-08-12T15:07:13.726Z,704
2018-08-12T15:08:35.151Z,720
2018-08-12T15:09:36.542Z,732
2018-08-12T15:10:58.023Z,760
2018-08-12T15:11:59.414Z,792
2018-08-12T15:13:20.913Z,800
2018-08-12T15:14:22.302Z,804
2018-08-12T15:15:43.782Z,820
2018-08-12T15:16:45.174Z,816
2018-08-12T15:18:06.655Z,808
2018-08-12T15:19:08.047Z,768
2018-08-12T15:20:29.542Z,768
2018-08-12T15:21:30.934Z,772
2018-08-12T15:22:52.458Z,748
2018-08-12T15:23:53.766Z,776
2018-08-12T15:25:15.248Z,760
2018-08-12T15:26:16.639Z,760
2018-08-12T15:27:38.135Z,768
2018-08-12T15:28:39.575Z,796
2018-08-12T15:30:01.007Z,820
2018-08-12T15:31:02.398Z,760
2018-08-12T15:32:23.871Z,780
2018-08-12T15:33:25.264Z,820
2018-08-12T15:34:46.790Z,788
2018-08-12T15:35:48.143Z,752
2018-08-12T15:37:09.623Z,716
2018-08-12T15:38:11.015Z,700
2018-08-12T15:39:32.495Z,684
2018-08-12T15:40:33.886Z,680
2018-08-12T15:41:55.375Z,660
2018-08-12T15:42:56.769Z,660
2018-08-12T15:44:18.295Z,668
2018-08-12T15:45:19.630Z,628
2018-08-12T15:46:41.119Z,612
2018-08-12T15:47:42.510Z,640
2018-08-12T15:49:03.999Z,648
2018-08-12T15:50:05.383Z,636
2018-08-12T15:51:26.871Z,632
2018-08-12T15:52:28.271Z,632
2018-08-12T15:53:49.751Z,600
2018-08-12T15:54:51.143Z,568
2018-08-12T15:56:12.631Z,676
2018-08-12T15:57:14.031Z,692
2018-08-12T15:58:35.503Z,740
2018-08-12T15:59:36.895Z,752
2018-08-12T16:00:58.376Z,756
2018-08-12T16:01:59.768Z,780
2018-08-12T16:03:21.295Z,824
2018-08-12T16:04:22.655Z,848
2018-08-12T16:05:44.137Z,876
2018-08-12T16:06:45.527Z,876
2018-08-12T16:08:07.007Z,868
2018-08-12T16:09:08.483Z,836
2018-08-12T16:10:29.898Z,768
2018-08-12T16:11:31.287Z,740
2018-08-12T16:12:52.773Z,688
2018-08-12T16:13:54.160Z,664
2018-08-12T16:15:15.634Z,672
2018-08-12T16:16:17.086Z,668
2018-08-12T16:17:38.520Z,692
2018-08-12T16:18:39.912Z,704
2018-08-12T16:20:01.393Z,704
2018-08-12T16:21:02.783Z,692
2018-08-12T16:22:24.328Z,684
2018-08-12T16:23:25.655Z,664
2018-08-12T16:24:47.145Z,624
2018-08-12T16:25:48.528Z,620
2018-08-12T16:27:10.013Z,620
2018-08-12T16:28:11.423Z,604
2018-08-12T16:29:32.880Z,608
2018-08-12T16:30:34.273Z,588
2018-08-12T16:31:55.760Z,584
2018-08-12T16:32:57.152Z,584
2018-08-12T16:34:18.632Z,600
2018-08-12T16:35:20.100Z,596
2018-08-12T16:36:41.468Z,592
2018-08-12T16:37:42.859Z,588
2018-08-12T16:39:04.353Z,576
2018-08-12T16:40:05.744Z,588
2018-08-12T16:41:27.224Z,588
2018-08-12T16:42:28.616Z,612
2018-08-12T16:43:50.096Z,624
2018-08-12T16:44:51.488Z,632
2018-08-12T16:46:12.978Z,616
2018-08-12T16:47:14.369Z,636
2018-08-12T16:48:35.850Z,632
2018-08-12T16:49:37.243Z,644
2018-08-12T16:50:58.720Z,640
2018-08-12T16:52:00.113Z,636
2018-08-12T16:53:21.600Z,584
2018-08-12T16:54:22.995Z,596
2018-08-12T16:55:44.473Z,604
2018-08-12T16:56:45.884Z,592
2018-08-12T16:58:07.348Z,552
2018-08-12T16:59:08.737Z,552
2018-08-12T17:00:30.225Z,572
2018-08-12T17:01:31.616Z,600
2018-08-12T17:02:53.225Z,620
2018-08-12T17:03:54.617Z,640
2018-08-12T17:05:16.097Z,672
2018-08-12T17:06:17.488Z,692
2018-08-12T17:07:38.977Z,680
2018-08-12T17:08:40.369Z,684
2018-08-12T17:10:01.841Z,660
2018-08-12T17:11:03.233Z,640
2018-08-12T17:12:24.721Z,640
2018-08-12T17:13:26.114Z,628
2018-08-12T17:14:47.609Z,656
2018-08-12T17:15:49.001Z,676
2018-08-12T17:17:10.482Z,712
2018-08-12T17:18:11.873Z,724
2018-08-12T17:19:33.354Z,740
2018-08-12T17:20:34.750Z,760
2018-08-12T17:21:56.242Z,800
2018-08-12T17:22:57.634Z,816
2018-08-12T17:24:19.116Z,808
2018-08-12T17:25:20.517Z,784
2018-08-12T17:26:41.985Z,720
2018-08-12T17:27:43.378Z,676
2018-08-12T17:29:04.875Z,636
2018-08-12T17:30:06.267Z,620
2018-08-12T17:31:27.746Z,644
2018-08-12T17:32:29.157Z,656
2018-08-12T17:33:50.618Z,664
2018-08-12T17:34:52.015Z,664
2018-08-12T17:36:13.658Z,648
2018-08-12T17:37:15.050Z,624
2018-08-12T17:38:36.532Z,584
2018-08-12T17:39:37.922Z,560
2018-08-12T17:40:59.402Z,544
2018-08-12T17:42:00.794Z,532
2018-08-12T17:43:22.283Z,504
2018-08-12T17:44:23.674Z,468
2018-08-12T17:45:45.155Z,440
2018-08-12T17:46:46.547Z,412
2018-08-12T17:48:08.046Z,372
2018-08-12T17:49:09.418Z,364
2018-08-12T17:50:30.914Z,360
2018-08-12T17:51:32.307Z,356
2018-08-12T17:52:53.786Z,372
2018-08-12T17:53:55.178Z,380
2018-08-12T17:55:16.658Z,372
2018-08-12T17:56:18.051Z,356
2018-08-12T17:57:39.549Z,332
2018-08-12T17:58:40.939Z,328
2018-08-12T18:00:02.455Z,328
2018-08-12T18:01:03.779Z,332
2018-08-12T18:02:25.259Z,336
2018-08-12T18:03:26.651Z,348
2018-08-12T18:04:48.148Z,372
2018-08-12T18:05:49.538Z,388
2018-08-12T18:07:11.019Z,400
2018-08-12T18:08:12.411Z,404
2018-08-12T18:09:33.890Z,424
2018-08-12T18:10:35.328Z,436
2018-08-12T18:11:56.771Z,432
2018-08-12T18:12:58.169Z,424
2018-08-12T18:14:19.635Z,404
2018-08-12T18:15:21.027Z,388
2018-08-12T18:16:42.507Z,368
2018-08-12T18:17:43.899Z,352
2018-08-12T18:19:05.388Z,320
2018-08-12T18:20:06.779Z,296
2018-08-12T18:21:28.259Z,268
2018-08-12T18:22:29.656Z,244
2018-08-12T18:23:51.140Z,224
2018-08-12T18:24:52.531Z,212
2018-08-12T18:26:14.028Z,200
2018-08-12T18:27:15.419Z,192
2018-08-12T18:28:36.900Z,184
2018-08-12T18:29:38.293Z,180
2018-08-12T18:30:59.854Z,176
2018-08-12T18:32:01.123Z,172
2018-08-12T18:33:22.611Z,168
2018-08-12T18:34:24.048Z,160
2018-08-12T18:35:45.475Z,148
2018-08-12T18:36:46.868Z,140
2018-08-12T18:38:08.339Z,128
2018-08-12T18:39:09.732Z,124
2018-08-12T18:40:31.220Z,120
2018-08-12T18:41:32.612Z,112
2018-08-12T18:42:54.089Z,100
2018-08-12T18:43:55.476Z,96
2018-08-12T18:45:16.956Z,84
2018-08-12T18:46:18.347Z,72
2018-08-12T18:47:39.859Z,60
2018-08-12T18:48:41.260Z,52
2018-08-12T18:50:02.749Z,44
2018-08-12T18:51:04.140Z,40
2018-08-12T18:52:25.619Z,36
2018-08-12T18:53:27.012Z,36
2018-08-12T18:54:48.508Z,32
2018-08-12T18:55:49.892Z,28
2018-08-12T18:57:11.393Z,24
2018-08-12T18:58:12.764Z,20
2018-08-12T18:59:34.244Z,20
2018-08-12T19:00:35.636Z,20
2018-08-12T19:01:57.124Z,16
2018-08-12T19:02:58.508Z,16
2018-08-12T19:04:19.980Z,16
2018-08-12T19:05:21.406Z,16
2018-08-12T19:06:42.852Z,16
2018-08-12T19:07:44.244Z,12
2018-08-12T19:09:05.732Z,12
2018-08-12T19:10:07.117Z,12
2018-08-12T19:11:28.588Z,8
2018-08-12T19:12:29.980Z,8
2018-08-12T19:13:51.460Z,8
2018-08-12T19:14:52.852Z,4
2018-08-12T19:16:14.340Z,8
2018-08-12T19:17:15.725Z,4
2018-08-12T19:18:37.196Z,4
2018-08-12T19:19:38.589Z,4
2018-08-12T19:21:00.069Z,4
2018-08-12T19:22:01.453Z,4
2018-08-12T19:23:22.948Z,0
2018-08-12T19:24:24.332Z,0
2018-08-12T19:25:45.804Z,0
2018-08-12T19:26:47.196Z,0
2018-08-12T19:28:08.676Z,0
2018-08-12T19:29:10.061Z,0
2018-08-12T19:30:31.549Z,0
2018-08-12T19:31:32.933Z,0
2018-08-12T19:32:54.413Z,0
2018-08-12T19:33:55.797Z,0
2018-08-12T19:35:17.278Z,0
2018-08-12T19:36:18.669Z,0
2018-08-12T19:37:40.161Z,0
2018-08-12T19:38:41.541Z,0
2018-08-12T19:40:03.013Z,0
2018-08-12T19:41:04.397Z,0
2018-08-12T19:42:25.877Z,0
2018-08-12T19:43:27.269Z,0
2018-08-12T19:44:48.765Z,0
2018-08-12T19:45:50.150Z,0
2018-08-12T19:47:11.622Z,0
2018-08-12T19:48:13.013Z,0
2018-08-12T19:49:34.493Z,0
2018-08-12T19:50:35.882Z,0
2018-08-12T19:51:57.365Z,0
2018-08-12T19:52:58.750Z,0
2018-08-12T19:54:20.231Z,0
2018-08-12T19:55:21.617Z,0
2018-08-12T19:56:43.097Z,0
2018-08-12T19:57:44.478Z,0
2018-08-12T19:59:05.966Z,0
2018-08-12T20:00:07.407Z,0
2018-08-12T20:01:28.790Z,0
2018-08-12T20:02:30.182Z,0
2018-08-12T20:03:51.655Z,0
2018-08-12T20:04:53.046Z,0
2018-08-12T20:06:14.694Z,0
2018-08-12T20:07:16.086Z,0
2018-08-12T20:08:37.558Z,0
2018-08-12T20:09:38.950Z,0
2018-08-12T20:11:00.422Z,0
2018-08-12T20:12:01.841Z,0
2018-08-12T20:13:23.414Z,0
2018-08-12T20:14:24.806Z,0
2018-08-12T20:15:46.287Z,0
2018-08-12T20:16:47.678Z,0
2018-08-12T20:18:09.150Z,0
2018-08-12T20:19:10.542Z,0
2018-08-12T20:20:32.031Z,0
2018-08-12T20:21:33.414Z,0
2018-08-12T20:22:54.889Z,0
2018-08-12T20:23:56.283Z,0
2018-08-12T20:25:17.750Z,0
2018-08-12T20:26:19.142Z,0
2018-08-12T20:27:40.638Z,0
2018-08-12T20:28:42.022Z,0
2018-08-12T20:30:03.495Z,0
2018-08-12T20:31:04.886Z,0
2018-08-12T20:32:26.358Z,0
2018-08-12T20:33:27.755Z,0
2018-08-12T20:34:49.246Z,0
2018-08-12T20:35:50.638Z,0
2018-08-12T20:37:12.118Z,0
2018-08-12T20:38:13.502Z,0
2018-08-12T20:39:35.028Z,0
2018-08-12T20:40:36.335Z,0
2018-08-12T20:41:57.822Z,0
2018-08-12T20:42:59.207Z,0
2018-08-12T20:44:20.670Z,0
2018-08-12T20:45:22.079Z,0
2018-08-12T20:46:43.543Z,0
2018-08-12T20:47:44.935Z,0
2018-08-12T20:49:06.425Z,0
2018-08-12T20:50:07.806Z,0
2018-08-12T20:51:29.287Z,0
2018-08-12T20:52:30.683Z,0
2018-08-12T20:53:52.151Z,0
2018-08-12T20:54:53.543Z,0
2018-08-12T20:56:15.032Z,0
2018-08-12T20:57:16.415Z,0
2018-08-12T20:58:37.887Z,0
2018-08-12T20:59:39.280Z,0
2018-08-12T21:01:00.751Z,0
2018-08-12T21:02:02.143Z,0
2018-08-12T21:03:23.783Z,0
2018-08-12T21:04:25.169Z,0
2018-08-12T21:05:46.647Z,0
2018-08-12T21:06:48.035Z,0
2018-08-12T21:08:09.511Z,0
2018-08-12T21:09:10.896Z,0
2018-08-12T21:10:32.391Z,0
2018-08-12T21:11:33.776Z,0
2018-08-12T21:12:55.258Z,0
2018-08-12T21:13:56.640Z,0
2018-08-12T21:15:18.111Z,0
2018-08-12T21:16:19.574Z,0
2018-08-12T21:17:40.991Z,0
2018-08-12T21:18:42.376Z,0
2018-08-12T21:20:03.848Z,0
2018-08-12T21:21:05.240Z,0
2018-08-12T21:22:26.712Z,0
2018-08-12T21:23:28.104Z,0
2018-08-12T21:24:49.749Z,0
2018-08-12T21:25:51.128Z,0
2018-08-12T21:27:12.608Z,0
2018-08-12T21:28:13.993Z,0
2018-08-12T21:29:35.472Z,0
2018-08-12T21:30:36.856Z,0
2018-08-12T21:31:58.496Z,0
2018-08-12T21:32:59.880Z,0
2018-08-12T21:34:21.352Z,0
2018-08-12T21:35:22.736Z,0
2018-08-12T21:36:44.217Z,0
2018-08-12T21:37:45.601Z,0
2018-08-12T21:39:07.096Z,0
2018-08-12T21:40:08.480Z,0
2018-08-12T21:41:29.952Z,0
2018-08-12T21:42:31.336Z,0
2018-08-12T21:43:52.808Z,0
2018-08-12T21:44:54.201Z,0
2018-08-12T21:46:15.706Z,0
2018-08-12T21:47:17.072Z,0
2018-08-12T21:48:38.544Z,0
2018-08-12T21:49:39.936Z,0
2018-08-12T21:51:01.409Z,0
2018-08-12T21:52:02.793Z,0
2018-08-12T21:53:24.281Z,0
2018-08-12T21:54:25.665Z,0
2018-08-12T21:55:47.137Z,0
2018-08-12T21:56:48.526Z,0
2018-08-12T21:58:09.993Z,0
2018-08-12T21:59:11.377Z,0
2018-08-12T22:00:32.865Z,0
2018-08-12T22:01:34.249Z,0
2018-08-12T22:02:55.721Z,0
2018-08-12T22:03:57.105Z,0
2018-08-12T22:05:18.581Z,0
2018-08-12T22:06:19.962Z,0
2018-08-12T22:07:41.449Z,0
2018-08-12T22:08:42.834Z,0
2018-08-12T22:10:04.305Z,0
2018-08-12T22:11:05.689Z,0
2018-08-12T22:12:27.162Z,0
2018-08-12T22:13:28.545Z,0
2018-08-12T22:14:50.034Z,0
2018-08-12T22:15:51.417Z,0
2018-08-12T22:17:12.892Z,0
2018-08-12T22:18:14.274Z,0
2018-08-12T22:19:35.746Z,0
2018-08-12T22:20:37.137Z,0
2018-08-12T22:21:58.617Z,0
2018-08-12T22:23:00.002Z,0
2018-08-12T22:24:21.473Z,0
2018-08-12T22:25:22.874Z,0
2018-08-12T22:26:44.338Z,0
2018-08-12T22:27:45.722Z,0
2018-08-12T22:29:07.220Z,0
2018-08-12T22:30:08.602Z,0
2018-08-12T22:31:30.074Z,0
2018-08-12T22:32:31.457Z,0
2018-08-12T22:33:52.930Z,0
2018-08-12T22:34:54.313Z,0
2018-08-12T22:36:15.953Z,0
2018-08-12T22:37:17.338Z,0
2018-08-12T22:38:38.818Z,0
2018-08-12T22:39:40.202Z,0
2018-08-12T22:41:01.674Z,0
2018-08-12T22:42:03.057Z,0
2018-08-12T22:43:24.546Z,0
2018-08-12T22:44:25.930Z,0
2018-08-12T22:45:47.402Z,0
2018-08-12T22:46:48.786Z,0
2018-08-12T22:48:10.266Z,0
2018-08-12T22:49:11.650Z,0
2018-08-12T22:50:33.138Z,0
2018-08-12T22:51:34.522Z,0
2018-08-12T22:52:55.994Z,0
2018-08-12T22:53:57.380Z,0
2018-08-12T22:55:18.853Z,0
2018-08-12T22:56:20.234Z,0
2018-08-12T22:57:41.722Z,0
2018-08-12T22:58:43.106Z,0
2018-08-12T23:00:04.578Z,0
2018-08-12T23:01:05.965Z,0
2018-08-12T23:02:27.434Z,0
2018-08-12T23:03:28.826Z,0
2018-08-12T23:04:50.315Z,0
2018-08-12T23:05:51.699Z,0
2018-08-12T23:07:13.171Z,0
2018-08-12T23:08:14.555Z,0
2018-08-12T23:09:36.036Z,0
2018-08-12T23:10:37.419Z,0
2018-08-12T23:11:59.051Z,0
2018-08-12T23:13:00.435Z,0
2018-08-12T23:14:21.907Z,0
2018-08-12T23:15:23.300Z,0
2018-08-12T23:16:44.785Z,0
2018-08-12T23:17:46.163Z,0
2018-08-12T23:19:07.651Z,0
2018-08-12T23:20:09.035Z,0
2018-08-12T23:21:30.507Z,0
2018-08-12T23:22:31.891Z,0
2018-08-12T23:23:53.363Z,0
2018-08-12T23:24:54.747Z,0
2018-08-12T23:26:16.235Z,0
2018-08-12T23:27:17.619Z,0
2018-08-12T23:28:39.101Z,0
2018-08-12T23:29:40.483Z,0
2018-08-12T23:31:01.964Z,0
2018-08-12T23:32:03.355Z,0
2018-08-12T23:33:24.835Z,0
2018-08-12T23:34:26.220Z,0
2018-08-12T23:35:47.692Z,0
2018-08-12T23:36:49.076Z,0
2018-08-12T23:38:10.548Z,0
2018-08-12T23:39:11.931Z,0
2018-08-12T23:40:33.508Z,0
2018-08-12T23:41:34.892Z,0
2018-08-12T23:42:56.364Z,0
2018-08-12T23:43:57.748Z,0
2018-08-12T23:45:19.228Z,0
2018-08-12T23:46:20.612Z,0
2018-08-12T23:47:42.252Z,0
2018-08-12T23:48:43.644Z,0
2018-08-12T23:50:05.124Z,0
2018-08-12T23:51:06.508Z,0
2018-08-12T23:52:27.980Z,0
2018-08-12T23:53:29.372Z,0
2018-08-12T23:54:50.860Z,0
2018-08-12T23:55:52.245Z,0
2018-08-12T23:57:13.716Z,0
2018-08-12T23:58:15.100Z,0
2018-08-12T23:59:36.580Z,0
